sensor_id;sensor_type;location;lat;lon;timestamp;temperature;humidity
39017;DHT22;24784;45.582;5.276;2023-07-31T00:00:27;16.50;97.70
39017;DHT22;24784;45.582;5.276;2023-07-31T00:02:54;16.40;97.60
39017;DHT22;24784;45.582;5.276;2023-07-31T00:05:20;16.40;97.90
39017;DHT22;24784;45.582;5.276;2023-07-31T00:07:46;16.40;97.70
39017;DHT22;24784;45.582;5.276;2023-07-31T00:10:12;16.30;97.80
39017;DHT22;24784;45.582;5.276;2023-07-31T00:12:43;16.20;98.00
39017;DHT22;24784;45.582;5.276;2023-07-31T00:15:09;16.30;98.30
39017;DHT22;24784;45.582;5.276;2023-07-31T00:17:36;16.30;98.00
39017;DHT22;24784;45.582;5.276;2023-07-31T00:20:03;16.20;97.80
39017;DHT22;24784;45.582;5.276;2023-07-31T00:22:28;16.20;97.90
39017;DHT22;24784;45.582;5.276;2023-07-31T00:24:56;16.30;98.10
39017;DHT22;24784;45.582;5.276;2023-07-31T00:27:22;16.20;98.00
39017;DHT22;24784;45.582;5.276;2023-07-31T00:29:47;16.20;98.10
39017;DHT22;24784;45.582;5.276;2023-07-31T00:32:13;16.10;98.10
39017;DHT22;24784;45.582;5.276;2023-07-31T00:34:39;16.00;98.50
39017;DHT22;24784;45.582;5.276;2023-07-31T00:37:05;16.00;98.50
39017;DHT22;24784;45.582;5.276;2023-07-31T00:39:33;16.00;98.40
39017;DHT22;24784;45.582;5.276;2023-07-31T00:41:58;16.00;98.30
39017;DHT22;24784;45.582;5.276;2023-07-31T00:44:24;16.00;98.30
39017;DHT22;24784;45.582;5.276;2023-07-31T00:46:50;16.00;98.30
39017;DHT22;24784;45.582;5.276;2023-07-31T00:49:16;16.00;98.30
39017;DHT22;24784;45.582;5.276;2023-07-31T00:51:41;16.00;98.30
39017;DHT22;24784;45.582;5.276;2023-07-31T00:54:07;15.80;98.70
39017;DHT22;24784;45.582;5.276;2023-07-31T00:56:33;15.80;98.70
39017;DHT22;24784;45.582;5.276;2023-07-31T00:58:59;15.80;98.60
39017;DHT22;24784;45.582;5.276;2023-07-31T01:01:25;15.90;98.60
39017;DHT22;24784;45.582;5.276;2023-07-31T01:03:52;15.80;98.60
39017;DHT22;24784;45.582;5.276;2023-07-31T01:06:51;15.70;98.70
39017;DHT22;24784;45.582;5.276;2023-07-31T01:09:40;15.70;98.80
39017;DHT22;24784;45.582;5.276;2023-07-31T01:12:09;15.70;98.90
39017;DHT22;24784;45.582;5.276;2023-07-31T01:14:38;15.70;98.90
39017;DHT22;24784;45.582;5.276;2023-07-31T01:17:04;15.70;99.00
39017;DHT22;24784;45.582;5.276;2023-07-31T01:19:30;15.70;99.00
39017;DHT22;24784;45.582;5.276;2023-07-31T01:22:30;15.70;99.20
39017;DHT22;24784;45.582;5.276;2023-07-31T01:25:05;15.60;99.00
39017;DHT22;24784;45.582;5.276;2023-07-31T01:27:44;15.60;99.20
39017;DHT22;24784;45.582;5.276;2023-07-31T01:30:16;15.60;99.10
39017;DHT22;24784;45.582;5.276;2023-07-31T01:32:48;15.50;99.10
39017;DHT22;24784;45.582;5.276;2023-07-31T01:35:14;15.50;99.40
39017;DHT22;24784;45.582;5.276;2023-07-31T01:37:40;15.40;99.40
39017;DHT22;24784;45.582;5.276;2023-07-31T01:40:06;15.30;99.50
39017;DHT22;24784;45.582;5.276;2023-07-31T01:42:32;15.40;99.60
39017;DHT22;24784;45.582;5.276;2023-07-31T01:44:58;15.30;99.70
39017;DHT22;24784;45.582;5.276;2023-07-31T01:47:23;15.30;99.70
39017;DHT22;24784;45.582;5.276;2023-07-31T01:49:49;15.30;99.80
39017;DHT22;24784;45.582;5.276;2023-07-31T01:52:15;15.30;99.60
39017;DHT22;24784;45.582;5.276;2023-07-31T01:54:41;15.30;99.80
39017;DHT22;24784;45.582;5.276;2023-07-31T01:57:06;15.30;99.80
39017;DHT22;24784;45.582;5.276;2023-07-31T01:59:32;15.30;99.70
39017;DHT22;24784;45.582;5.276;2023-07-31T02:01:58;15.10;99.70
39017;DHT22;24784;45.582;5.276;2023-07-31T02:04:24;15.10;99.90
39017;DHT22;24784;45.582;5.276;2023-07-31T02:06:49;15.10;99.90
39017;DHT22;24784;45.582;5.276;2023-07-31T02:09:15;15.00;99.90
39017;DHT22;24784;45.582;5.276;2023-07-31T02:11:41;15.10;99.90
39017;DHT22;24784;45.582;5.276;2023-07-31T02:14:07;15.10;99.90
39017;DHT22;24784;45.582;5.276;2023-07-31T02:16:32;15.10;99.90
39017;DHT22;24784;45.582;5.276;2023-07-31T02:18:58;15.00;99.90
39017;DHT22;24784;45.582;5.276;2023-07-31T02:21:24;15.00;99.90
39017;DHT22;24784;45.582;5.276;2023-07-31T02:23:49;15.00;99.90
39017;DHT22;24784;45.582;5.276;2023-07-31T02:26:15;15.00;99.90
39017;DHT22;24784;45.582;5.276;2023-07-31T02:28:41;14.90;99.90
39017;DHT22;24784;45.582;5.276;2023-07-31T02:31:08;14.90;99.90
39017;DHT22;24784;45.582;5.276;2023-07-31T02:33:34;14.90;99.90
39017;DHT22;24784;45.582;5.276;2023-07-31T02:36:00;14.90;99.90
39017;DHT22;24784;45.582;5.276;2023-07-31T02:38:26;14.80;99.90
39017;DHT22;24784;45.582;5.276;2023-07-31T02:40:52;14.80;99.90
39017;DHT22;24784;45.582;5.276;2023-07-31T02:43:18;14.80;99.90
39017;DHT22;24784;45.582;5.276;2023-07-31T02:45:43;14.80;99.90
39017;DHT22;24784;45.582;5.276;2023-07-31T02:48:09;14.80;99.90
39017;DHT22;24784;45.582;5.276;2023-07-31T02:50:35;14.80;99.90
39017;DHT22;24784;45.582;5.276;2023-07-31T02:53:01;14.80;99.90
39017;DHT22;24784;45.582;5.276;2023-07-31T02:55:26;14.80;99.90
39017;DHT22;24784;45.582;5.276;2023-07-31T02:57:52;14.80;99.90
39017;DHT22;24784;45.582;5.276;2023-07-31T03:00:18;14.70;99.90
39017;DHT22;24784;45.582;5.276;2023-07-31T03:02:44;14.70;99.90
39017;DHT22;24784;45.582;5.276;2023-07-31T03:05:10;14.70;99.90
39017;DHT22;24784;45.582;5.276;2023-07-31T03:07:35;14.70;99.90
39017;DHT22;24784;45.582;5.276;2023-07-31T03:10:01;14.60;99.90
39017;DHT22;24784;45.582;5.276;2023-07-31T03:12:33;14.40;99.90
39017;DHT22;24784;45.582;5.276;2023-07-31T03:14:58;14.50;99.90
39017;DHT22;24784;45.582;5.276;2023-07-31T03:17:24;14.60;99.90
39017;DHT22;24784;45.582;5.276;2023-07-31T03:19:50;14.70;99.90
39017;DHT22;24784;45.582;5.276;2023-07-31T03:22:16;14.70;99.90
39017;DHT22;24784;45.582;5.276;2023-07-31T03:24:41;14.50;99.90
39017;DHT22;24784;45.582;5.276;2023-07-31T03:27:07;14.50;99.90
39017;DHT22;24784;45.582;5.276;2023-07-31T03:29:33;14.50;99.90
39017;DHT22;24784;45.582;5.276;2023-07-31T03:31:59;14.40;99.90
39017;DHT22;24784;45.582;5.276;2023-07-31T03:34:25;14.50;99.90
39017;DHT22;24784;45.582;5.276;2023-07-31T03:36:50;14.50;99.90
39017;DHT22;24784;45.582;5.276;2023-07-31T03:39:16;14.50;99.90
39017;DHT22;24784;45.582;5.276;2023-07-31T03:41:42;14.50;99.90
39017;DHT22;24784;45.582;5.276;2023-07-31T03:44:08;14.50;99.90
39017;DHT22;24784;45.582;5.276;2023-07-31T03:46:33;14.40;99.90
39017;DHT22;24784;45.582;5.276;2023-07-31T03:49:00;14.50;99.90
39017;DHT22;24784;45.582;5.276;2023-07-31T03:51:25;14.50;99.90
39017;DHT22;24784;45.582;5.276;2023-07-31T03:53:51;14.50;99.90
39017;DHT22;24784;45.582;5.276;2023-07-31T03:56:17;14.50;99.90
39017;DHT22;24784;45.582;5.276;2023-07-31T03:58:42;14.50;99.90
39017;DHT22;24784;45.582;5.276;2023-07-31T04:01:08;14.40;99.90
39017;DHT22;24784;45.582;5.276;2023-07-31T04:03:34;14.30;99.90
39017;DHT22;24784;45.582;5.276;2023-07-31T04:05:59;14.30;99.90
39017;DHT22;24784;45.582;5.276;2023-07-31T04:08:34;14.30;99.90
39017;DHT22;24784;45.582;5.276;2023-07-31T04:11:00;14.30;99.90
39017;DHT22;24784;45.582;5.276;2023-07-31T04:13:25;14.20;99.90
39017;DHT22;24784;45.582;5.276;2023-07-31T04:15:53;14.30;99.90
39017;DHT22;24784;45.582;5.276;2023-07-31T04:18:20;14.30;99.90
39017;DHT22;24784;45.582;5.276;2023-07-31T04:20:45;14.30;99.90
39017;DHT22;24784;45.582;5.276;2023-07-31T04:23:11;14.20;99.90
39017;DHT22;24784;45.582;5.276;2023-07-31T04:25:37;14.10;99.90
39017;DHT22;24784;45.582;5.276;2023-07-31T04:28:09;14.20;99.90
39017;DHT22;24784;45.582;5.276;2023-07-31T04:30:34;14.20;99.90
39017;DHT22;24784;45.582;5.276;2023-07-31T04:33:01;14.20;99.90
39017;DHT22;24784;45.582;5.276;2023-07-31T04:35:27;14.20;99.90
39017;DHT22;24784;45.582;5.276;2023-07-31T04:37:53;14.30;99.90
39017;DHT22;24784;45.582;5.276;2023-07-31T04:40:18;14.20;99.90
39017;DHT22;24784;45.582;5.276;2023-07-31T04:42:44;14.10;99.90
39017;DHT22;24784;45.582;5.276;2023-07-31T04:45:10;14.00;99.90
39017;DHT22;24784;45.582;5.276;2023-07-31T04:47:36;13.90;99.90
39017;DHT22;24784;45.582;5.276;2023-07-31T04:50:01;13.90;99.90
39017;DHT22;24784;45.582;5.276;2023-07-31T04:52:27;14.00;99.90
39017;DHT22;24784;45.582;5.276;2023-07-31T04:54:53;14.10;99.90
39017;DHT22;24784;45.582;5.276;2023-07-31T04:57:18;14.10;99.90
39017;DHT22;24784;45.582;5.276;2023-07-31T04:59:44;14.10;99.90
39017;DHT22;24784;45.582;5.276;2023-07-31T05:02:12;14.20;99.90
39017;DHT22;24784;45.582;5.276;2023-07-31T05:04:39;14.20;99.90
39017;DHT22;24784;45.582;5.276;2023-07-31T05:07:05;14.20;99.90
39017;DHT22;24784;45.582;5.276;2023-07-31T05:09:30;14.20;99.90
39017;DHT22;24784;45.582;5.276;2023-07-31T05:11:56;14.10;99.90
39017;DHT22;24784;45.582;5.276;2023-07-31T05:14:22;14.20;99.90
39017;DHT22;24784;45.582;5.276;2023-07-31T05:16:48;14.20;99.90
39017;DHT22;24784;45.582;5.276;2023-07-31T05:19:13;14.20;99.90
39017;DHT22;24784;45.582;5.276;2023-07-31T05:21:40;14.10;99.90
39017;DHT22;24784;45.582;5.276;2023-07-31T05:24:06;14.10;99.90
39017;DHT22;24784;45.582;5.276;2023-07-31T05:26:32;14.20;99.90
39017;DHT22;24784;45.582;5.276;2023-07-31T05:28:58;14.10;99.90
39017;DHT22;24784;45.582;5.276;2023-07-31T05:31:23;14.10;99.90
39017;DHT22;24784;45.582;5.276;2023-07-31T05:33:50;14.00;99.90
39017;DHT22;24784;45.582;5.276;2023-07-31T05:36:22;14.10;99.90
39017;DHT22;24784;45.582;5.276;2023-07-31T05:38:48;14.20;99.90
39017;DHT22;24784;45.582;5.276;2023-07-31T05:41:13;14.10;99.90
39017;DHT22;24784;45.582;5.276;2023-07-31T05:43:39;14.20;99.90
39017;DHT22;24784;45.582;5.276;2023-07-31T05:46:06;14.30;99.90
39017;DHT22;24784;45.582;5.276;2023-07-31T05:48:32;14.20;99.90
39017;DHT22;24784;45.582;5.276;2023-07-31T05:50:59;14.10;99.90
39017;DHT22;24784;45.582;5.276;2023-07-31T05:53:25;14.20;99.90
39017;DHT22;24784;45.582;5.276;2023-07-31T05:55:51;14.20;99.90
39017;DHT22;24784;45.582;5.276;2023-07-31T05:58:17;14.20;99.90
39017;DHT22;24784;45.582;5.276;2023-07-31T06:00:42;14.20;99.90
39017;DHT22;24784;45.582;5.276;2023-07-31T06:03:08;14.30;99.90
39017;DHT22;24784;45.582;5.276;2023-07-31T06:05:34;14.20;99.90
39017;DHT22;24784;45.582;5.276;2023-07-31T06:08:00;14.20;99.90
39017;DHT22;24784;45.582;5.276;2023-07-31T06:10:26;14.10;99.90
39017;DHT22;24784;45.582;5.276;2023-07-31T06:12:52;14.10;99.90
39017;DHT22;24784;45.582;5.276;2023-07-31T06:15:18;14.10;99.90
39017;DHT22;24784;45.582;5.276;2023-07-31T06:17:45;14.10;99.90
39017;DHT22;24784;45.582;5.276;2023-07-31T06:20:11;14.20;99.90
39017;DHT22;24784;45.582;5.276;2023-07-31T06:22:37;14.20;99.90
39017;DHT22;24784;45.582;5.276;2023-07-31T06:25:02;14.20;99.90
39017;DHT22;24784;45.582;5.276;2023-07-31T06:27:28;14.40;99.90
39017;DHT22;24784;45.582;5.276;2023-07-31T06:29:54;14.40;99.90
39017;DHT22;24784;45.582;5.276;2023-07-31T06:32:20;14.40;99.90
39017;DHT22;24784;45.582;5.276;2023-07-31T06:34:45;14.50;99.90
39017;DHT22;24784;45.582;5.276;2023-07-31T06:37:11;14.50;99.90
39017;DHT22;24784;45.582;5.276;2023-07-31T06:39:37;14.50;99.90
39017;DHT22;24784;45.582;5.276;2023-07-31T06:42:03;14.60;99.90
39017;DHT22;24784;45.582;5.276;2023-07-31T06:44:29;14.60;99.90
39017;DHT22;24784;45.582;5.276;2023-07-31T06:46:55;14.60;99.90
39017;DHT22;24784;45.582;5.276;2023-07-31T06:49:21;14.60;99.90
39017;DHT22;24784;45.582;5.276;2023-07-31T06:51:47;14.70;99.90
39017;DHT22;24784;45.582;5.276;2023-07-31T06:54:12;14.70;99.90
39017;DHT22;24784;45.582;5.276;2023-07-31T06:56:38;14.80;99.90
39017;DHT22;24784;45.582;5.276;2023-07-31T06:59:04;14.80;99.90
39017;DHT22;24784;45.582;5.276;2023-07-31T07:01:30;14.80;99.90
39017;DHT22;24784;45.582;5.276;2023-07-31T07:03:55;14.90;99.90
39017;DHT22;24784;45.582;5.276;2023-07-31T07:06:22;14.90;99.90
39017;DHT22;24784;45.582;5.276;2023-07-31T07:08:48;14.90;99.90
39017;DHT22;24784;45.582;5.276;2023-07-31T07:11:14;15.00;99.90
39017;DHT22;24784;45.582;5.276;2023-07-31T07:13:39;15.10;99.90
39017;DHT22;24784;45.582;5.276;2023-07-31T07:16:05;15.20;99.90
39017;DHT22;24784;45.582;5.276;2023-07-31T07:18:31;15.30;99.90
39017;DHT22;24784;45.582;5.276;2023-07-31T07:20:57;15.30;99.90
39017;DHT22;24784;45.582;5.276;2023-07-31T07:23:23;15.50;99.90
39017;DHT22;24784;45.582;5.276;2023-07-31T07:25:49;15.60;99.90
39017;DHT22;24784;45.582;5.276;2023-07-31T07:28:15;15.70;99.90
39017;DHT22;24784;45.582;5.276;2023-07-31T07:30:41;15.80;99.90
39017;DHT22;24784;45.582;5.276;2023-07-31T07:33:07;16.00;99.90
39017;DHT22;24784;45.582;5.276;2023-07-31T07:35:36;16.10;99.90
39017;DHT22;24784;45.582;5.276;2023-07-31T07:38:02;16.20;99.90
39017;DHT22;24784;45.582;5.276;2023-07-31T07:40:28;16.20;99.90
39017;DHT22;24784;45.582;5.276;2023-07-31T07:42:54;16.30;99.90
39017;DHT22;24784;45.582;5.276;2023-07-31T07:45:20;16.30;99.90
39017;DHT22;24784;45.582;5.276;2023-07-31T07:47:45;16.40;99.90
39017;DHT22;24784;45.582;5.276;2023-07-31T07:50:11;16.40;99.90
39017;DHT22;24784;45.582;5.276;2023-07-31T07:52:37;16.50;99.90
39017;DHT22;24784;45.582;5.276;2023-07-31T07:55:04;16.60;99.90
39017;DHT22;24784;45.582;5.276;2023-07-31T07:57:29;16.70;99.90
39017;DHT22;24784;45.582;5.276;2023-07-31T07:59:55;16.90;99.90
39017;DHT22;24784;45.582;5.276;2023-07-31T08:02:22;17.10;99.90
39017;DHT22;24784;45.582;5.276;2023-07-31T08:04:48;17.20;99.90
39017;DHT22;24784;45.582;5.276;2023-07-31T08:07:14;17.30;99.90
39017;DHT22;24784;45.582;5.276;2023-07-31T08:09:40;17.50;99.90
39017;DHT22;24784;45.582;5.276;2023-07-31T08:12:06;17.60;99.70
39017;DHT22;24784;45.582;5.276;2023-07-31T08:14:32;17.80;98.80
39017;DHT22;24784;45.582;5.276;2023-07-31T08:16:58;18.20;96.50
39017;DHT22;24784;45.582;5.276;2023-07-31T08:19:24;18.50;96.20
39017;DHT22;24784;45.582;5.276;2023-07-31T08:21:50;18.60;97.20
39017;DHT22;24784;45.582;5.276;2023-07-31T08:24:16;18.80;97.60
39017;DHT22;24784;45.582;5.276;2023-07-31T08:26:42;18.90;97.40
39017;DHT22;24784;45.582;5.276;2023-07-31T08:29:08;19.00;96.30
39017;DHT22;24784;45.582;5.276;2023-07-31T08:31:33;19.10;96.10
39017;DHT22;24784;45.582;5.276;2023-07-31T08:34:00;19.20;96.10
39017;DHT22;24784;45.582;5.276;2023-07-31T08:36:26;19.30;94.90
39017;DHT22;24784;45.582;5.276;2023-07-31T08:38:51;19.60;94.10
39017;DHT22;24784;45.582;5.276;2023-07-31T08:41:17;19.70;92.20
39017;DHT22;24784;45.582;5.276;2023-07-31T08:43:45;19.80;91.60
39017;DHT22;24784;45.582;5.276;2023-07-31T08:46:11;20.10;93.10
39017;DHT22;24784;45.582;5.276;2023-07-31T08:48:37;20.10;92.40
39017;DHT22;24784;45.582;5.276;2023-07-31T08:51:04;20.30;91.70
39017;DHT22;24784;45.582;5.276;2023-07-31T08:53:30;20.40;90.60
39017;DHT22;24784;45.582;5.276;2023-07-31T08:56:00;20.30;90.40
39017;DHT22;24784;45.582;5.276;2023-07-31T08:58:31;20.50;90.50
39017;DHT22;24784;45.582;5.276;2023-07-31T09:01:01;20.80;91.10
39017;DHT22;24784;45.582;5.276;2023-07-31T09:03:28;21.00;90.80
39017;DHT22;24784;45.582;5.276;2023-07-31T09:05:58;21.10;90.10
39017;DHT22;24784;45.582;5.276;2023-07-31T09:08:24;21.30;90.20
39017;DHT22;24784;45.582;5.276;2023-07-31T09:10:52;21.40;90.30
39017;DHT22;24784;45.582;5.276;2023-07-31T09:13:17;21.50;89.60
39017;DHT22;24784;45.582;5.276;2023-07-31T09:15:43;21.60;89.20
39017;DHT22;24784;45.582;5.276;2023-07-31T09:18:09;21.70;89.00
39017;DHT22;24784;45.582;5.276;2023-07-31T09:20:35;21.80;88.10
39017;DHT22;24784;45.582;5.276;2023-07-31T09:23:13;21.90;87.80
39017;DHT22;24784;45.582;5.276;2023-07-31T09:25:39;22.10;89.80
39017;DHT22;24784;45.582;5.276;2023-07-31T09:28:06;22.20;88.20
39017;DHT22;24784;45.582;5.276;2023-07-31T09:30:43;22.10;87.70
39017;DHT22;24784;45.582;5.276;2023-07-31T09:33:09;22.30;88.20
39017;DHT22;24784;45.582;5.276;2023-07-31T09:35:35;22.50;88.40
39017;DHT22;24784;45.582;5.276;2023-07-31T09:38:03;22.50;86.30
39017;DHT22;24784;45.582;5.276;2023-07-31T09:40:36;22.50;85.80
39017;DHT22;24784;45.582;5.276;2023-07-31T09:43:02;22.40;86.10
39017;DHT22;24784;45.582;5.276;2023-07-31T09:45:28;22.50;85.70
39017;DHT22;24784;45.582;5.276;2023-07-31T09:47:54;22.80;84.90
39017;DHT22;24784;45.582;5.276;2023-07-31T09:50:21;22.90;85.00
39017;DHT22;24784;45.582;5.276;2023-07-31T09:52:47;22.80;83.80
39017;DHT22;24784;45.582;5.276;2023-07-31T09:55:12;22.60;83.00
39017;DHT22;24784;45.582;5.276;2023-07-31T09:57:39;22.40;86.50
39017;DHT22;24784;45.582;5.276;2023-07-31T10:00:06;22.70;85.80
39017;DHT22;24784;45.582;5.276;2023-07-31T10:02:34;22.90;84.50
39017;DHT22;24784;45.582;5.276;2023-07-31T10:05:02;22.90;84.00
39017;DHT22;24784;45.582;5.276;2023-07-31T10:07:28;23.00;84.20
39017;DHT22;24784;45.582;5.276;2023-07-31T10:09:55;23.00;82.40
39017;DHT22;24784;45.582;5.276;2023-07-31T10:12:28;23.20;82.40
39017;DHT22;24784;45.582;5.276;2023-07-31T10:14:54;23.20;82.20
39017;DHT22;24784;45.582;5.276;2023-07-31T10:17:21;23.30;83.20
39017;DHT22;24784;45.582;5.276;2023-07-31T10:19:46;23.40;83.70
39017;DHT22;24784;45.582;5.276;2023-07-31T10:22:14;23.60;83.90
39017;DHT22;24784;45.582;5.276;2023-07-31T10:24:39;23.60;82.60
39017;DHT22;24784;45.582;5.276;2023-07-31T10:27:06;23.80;82.60
39017;DHT22;24784;45.582;5.276;2023-07-31T10:29:32;23.90;81.40
39017;DHT22;24784;45.582;5.276;2023-07-31T10:31:59;23.90;80.80
39017;DHT22;24784;45.582;5.276;2023-07-31T10:34:25;23.90;79.70
39017;DHT22;24784;45.582;5.276;2023-07-31T10:36:51;23.80;80.70
39017;DHT22;24784;45.582;5.276;2023-07-31T10:39:36;24.00;82.20
39017;DHT22;24784;45.582;5.276;2023-07-31T10:42:12;24.10;79.70
39017;DHT22;24784;45.582;5.276;2023-07-31T10:44:43;24.20;79.60
39017;DHT22;24784;45.582;5.276;2023-07-31T10:47:08;24.30;79.10
39017;DHT22;24784;45.582;5.276;2023-07-31T10:49:34;24.30;77.30
39017;DHT22;24784;45.582;5.276;2023-07-31T10:51:59;24.50;79.20
39017;DHT22;24784;45.582;5.276;2023-07-31T10:54:28;24.50;78.30
39017;DHT22;24784;45.582;5.276;2023-07-31T10:56:53;24.90;83.90
39017;DHT22;24784;45.582;5.276;2023-07-31T10:59:19;24.40;77.00
39017;DHT22;24784;45.582;5.276;2023-07-31T11:04:27;24.50;77.90
39017;DHT22;24784;45.582;5.276;2023-07-31T11:06:56;24.60;77.00
39017;DHT22;24784;45.582;5.276;2023-07-31T11:09:22;24.50;74.40
39017;DHT22;24784;45.582;5.276;2023-07-31T11:11:47;24.50;76.50
39017;DHT22;24784;45.582;5.276;2023-07-31T11:14:15;24.60;76.20
39017;DHT22;24784;45.582;5.276;2023-07-31T11:16:41;24.70;74.40
39017;DHT22;24784;45.582;5.276;2023-07-31T11:19:08;24.60;75.20
39017;DHT22;24784;45.582;5.276;2023-07-31T11:21:36;25.10;89.00
39017;DHT22;24784;45.582;5.276;2023-07-31T11:26:28;25.70;93.50
39017;DHT22;24784;45.582;5.276;2023-07-31T11:28:54;25.20;90.70
39017;DHT22;24784;45.582;5.276;2023-07-31T11:31:19;25.20;96.10
39017;DHT22;24784;45.582;5.276;2023-07-31T11:33:45;24.90;73.60
39017;DHT22;24784;45.582;5.276;2023-07-31T11:36:18;24.80;74.40
39017;DHT22;24784;45.582;5.276;2023-07-31T11:38:44;24.60;74.00
39017;DHT22;24784;45.582;5.276;2023-07-31T11:41:09;24.70;75.10
39017;DHT22;24784;45.582;5.276;2023-07-31T11:43:35;25.10;75.70
39017;DHT22;24784;45.582;5.276;2023-07-31T11:46:02;25.80;75.60
39017;DHT22;24784;45.582;5.276;2023-07-31T11:48:33;25.10;74.30
39017;DHT22;24784;45.582;5.276;2023-07-31T11:51:00;25.20;75.00
39017;DHT22;24784;45.582;5.276;2023-07-31T11:56:01;25.40;74.20
39017;DHT22;24784;45.582;5.276;2023-07-31T11:58:29;25.30;72.60
39017;DHT22;24784;45.582;5.276;2023-07-31T12:00:56;25.00;73.80
39017;DHT22;24784;45.582;5.276;2023-07-31T12:03:22;25.40;75.90
39017;DHT22;24784;45.582;5.276;2023-07-31T12:05:48;25.50;73.20
39017;DHT22;24784;45.582;5.276;2023-07-31T12:08:13;25.50;73.80
39017;DHT22;24784;45.582;5.276;2023-07-31T12:10:39;25.40;72.00
39017;DHT22;24784;45.582;5.276;2023-07-31T12:13:12;24.90;72.10
39017;DHT22;24784;45.582;5.276;2023-07-31T12:15:45;24.90;75.20
39017;DHT22;24784;45.582;5.276;2023-07-31T12:18:14;25.20;74.00
39017;DHT22;24784;45.582;5.276;2023-07-31T12:20:43;25.20;73.80
39017;DHT22;24784;45.582;5.276;2023-07-31T12:23:17;25.50;75.50
39017;DHT22;24784;45.582;5.276;2023-07-31T12:25:43;25.60;74.40
39017;DHT22;24784;45.582;5.276;2023-07-31T12:28:08;25.40;72.20
39017;DHT22;24784;45.582;5.276;2023-07-31T12:30:37;25.20;73.70
39017;DHT22;24784;45.582;5.276;2023-07-31T12:33:04;25.30;73.90
39017;DHT22;24784;45.582;5.276;2023-07-31T12:35:37;25.30;73.20
39017;DHT22;24784;45.582;5.276;2023-07-31T12:38:02;25.40;74.10
39017;DHT22;24784;45.582;5.276;2023-07-31T12:40:28;25.70;72.80
39017;DHT22;24784;45.582;5.276;2023-07-31T12:42:54;25.80;71.50
39017;DHT22;24784;45.582;5.276;2023-07-31T12:45:19;25.80;70.30
39017;DHT22;24784;45.582;5.276;2023-07-31T12:47:46;25.90;70.80
39017;DHT22;24784;45.582;5.276;2023-07-31T12:50:11;26.00;69.40
39017;DHT22;24784;45.582;5.276;2023-07-31T12:52:37;25.90;69.60
39017;DHT22;24784;45.582;5.276;2023-07-31T12:55:03;26.10;69.10
39017;DHT22;24784;45.582;5.276;2023-07-31T12:57:30;26.00;69.10
39017;DHT22;24784;45.582;5.276;2023-07-31T12:59:55;26.00;68.50
39017;DHT22;24784;45.582;5.276;2023-07-31T13:02:21;26.10;68.90
39017;DHT22;24784;45.582;5.276;2023-07-31T13:04:47;26.20;69.30
39017;DHT22;24784;45.582;5.276;2023-07-31T13:07:12;26.10;67.40
39017;DHT22;24784;45.582;5.276;2023-07-31T13:09:38;26.10;68.80
39017;DHT22;24784;45.582;5.276;2023-07-31T13:12:04;26.20;70.10
39017;DHT22;24784;45.582;5.276;2023-07-31T13:14:29;26.50;69.20
39017;DHT22;24784;45.582;5.276;2023-07-31T13:16:55;26.70;68.50
39017;DHT22;24784;45.582;5.276;2023-07-31T13:19:20;26.60;67.80
39017;DHT22;24784;45.582;5.276;2023-07-31T13:21:46;26.60;67.60
39017;DHT22;24784;45.582;5.276;2023-07-31T13:24:12;26.70;68.00
39017;DHT22;24784;45.582;5.276;2023-07-31T13:26:37;26.80;68.00
39017;DHT22;24784;45.582;5.276;2023-07-31T13:29:03;26.60;66.10
39017;DHT22;24784;45.582;5.276;2023-07-31T13:31:28;26.70;67.10
39017;DHT22;24784;45.582;5.276;2023-07-31T13:33:54;26.60;67.10
39017;DHT22;24784;45.582;5.276;2023-07-31T13:36:20;26.80;66.90
39017;DHT22;24784;45.582;5.276;2023-07-31T13:38:45;26.80;66.30
39017;DHT22;24784;45.582;5.276;2023-07-31T13:41:11;27.00;66.70
39017;DHT22;24784;45.582;5.276;2023-07-31T13:43:36;26.90;66.10
39017;DHT22;24784;45.582;5.276;2023-07-31T13:46:02;27.00;66.80
39017;DHT22;24784;45.582;5.276;2023-07-31T13:48:33;27.10;66.50
39017;DHT22;24784;45.582;5.276;2023-07-31T13:50:59;27.00;67.00
39017;DHT22;24784;45.582;5.276;2023-07-31T13:53:25;26.60;66.30
39017;DHT22;24784;45.582;5.276;2023-07-31T13:55:50;26.90;67.50
39017;DHT22;24784;45.582;5.276;2023-07-31T13:58:17;27.20;67.80
39017;DHT22;24784;45.582;5.276;2023-07-31T14:00:42;27.20;65.70
39017;DHT22;24784;45.582;5.276;2023-07-31T14:03:08;27.20;66.50
39017;DHT22;24784;45.582;5.276;2023-07-31T14:05:33;27.20;64.80
39017;DHT22;24784;45.582;5.276;2023-07-31T14:07:59;27.20;65.70
39017;DHT22;24784;45.582;5.276;2023-07-31T14:10:25;27.20;65.00
39017;DHT22;24784;45.582;5.276;2023-07-31T14:12:50;27.00;65.60
39017;DHT22;24784;45.582;5.276;2023-07-31T14:15:16;27.00;64.70
39017;DHT22;24784;45.582;5.276;2023-07-31T14:17:41;27.00;65.70
39017;DHT22;24784;45.582;5.276;2023-07-31T14:20:07;27.20;65.10
39017;DHT22;24784;45.582;5.276;2023-07-31T14:22:33;27.00;63.30
39017;DHT22;24784;45.582;5.276;2023-07-31T14:24:59;27.00;65.60
39017;DHT22;24784;45.582;5.276;2023-07-31T14:27:25;27.20;64.70
39017;DHT22;24784;45.582;5.276;2023-07-31T14:29:50;27.30;65.30
39017;DHT22;24784;45.582;5.276;2023-07-31T14:32:16;27.30;66.20
39017;DHT22;24784;45.582;5.276;2023-07-31T14:34:41;27.30;65.30
39017;DHT22;24784;45.582;5.276;2023-07-31T14:37:07;27.40;65.60
39017;DHT22;24784;45.582;5.276;2023-07-31T14:39:33;27.40;65.30
39017;DHT22;24784;45.582;5.276;2023-07-31T14:41:58;27.60;65.90
39017;DHT22;24784;45.582;5.276;2023-07-31T14:44:24;27.70;65.30
39017;DHT22;24784;45.582;5.276;2023-07-31T14:46:49;27.70;64.30
39017;DHT22;24784;45.582;5.276;2023-07-31T14:49:15;27.30;64.80
39017;DHT22;24784;45.582;5.276;2023-07-31T14:51:40;27.00;63.60
39017;DHT22;24784;45.582;5.276;2023-07-31T14:54:06;27.10;65.90
39017;DHT22;24784;45.582;5.276;2023-07-31T14:56:31;27.20;64.30
39017;DHT22;24784;45.582;5.276;2023-07-31T14:58:57;27.30;64.70
39017;DHT22;24784;45.582;5.276;2023-07-31T15:01:23;27.10;65.30
39017;DHT22;24784;45.582;5.276;2023-07-31T15:03:48;27.30;66.30
39017;DHT22;24784;45.582;5.276;2023-07-31T15:06:14;27.30;64.90
39017;DHT22;24784;45.582;5.276;2023-07-31T15:08:39;27.30;65.20
39017;DHT22;24784;45.582;5.276;2023-07-31T15:11:06;27.40;64.90
39017;DHT22;24784;45.582;5.276;2023-07-31T15:13:32;27.60;66.10
39017;DHT22;24784;45.582;5.276;2023-07-31T15:15:58;27.70;66.60
39017;DHT22;24784;45.582;5.276;2023-07-31T15:18:23;27.70;64.80
39017;DHT22;24784;45.582;5.276;2023-07-31T15:20:49;27.70;64.40
39017;DHT22;24784;45.582;5.276;2023-07-31T15:23:14;27.60;64.60
39017;DHT22;24784;45.582;5.276;2023-07-31T15:25:40;27.60;64.60
39017;DHT22;24784;45.582;5.276;2023-07-31T15:28:05;27.70;65.20
39017;DHT22;24784;45.582;5.276;2023-07-31T15:30:32;27.60;64.40
39017;DHT22;24784;45.582;5.276;2023-07-31T15:32:58;27.60;64.00